Time;durP1;ratioP1;P1;durP2;ratioP2;P2;SDS_P1;SDS_P2;PMS_P1;PMS_P2;Temp;Humidity;BMP_temperature;BMP_pressure;BME280_temperature;BME280_humidity;BME280_pressure;Samples;Min_cycle;Max_cycle;Signal;HPM_P1;HPM_P2
2022/08/18 00:01:41;;;;;;;3.37;2.87;;;;;;;;;;5091851;28;20432;-77
2022/08/18 00:04:09;;;;;;;3.90;3.03;;;;;;;;;;5092169;28;20524;-75
2022/08/18 00:06:36;;;;;;;3.20;2.90;;;;;;;;;;5091935;28;20441;-76
2022/08/18 00:09:05;;;;;;;3.47;3.17;;;;;;;;;;5091014;28;20441;-76
2022/08/18 00:11:33;;;;;;;3.80;2.67;;;;;;;;;;5091495;28;20441;-76
2022/08/18 00:14:01;;;;;;;4.03;3.13;;;;;;;;;;5091042;28;20977;-76
2022/08/18 00:16:28;;;;;;;3.70;3.23;;;;;;;;;;5091865;28;20444;-76
2022/08/18 00:18:56;;;;;;;3.07;2.77;;;;;;;;;;5091244;28;20819;-77
2022/08/18 00:21:23;;;;;;;3.23;2.93;;;;;;;;;;5091452;28;20471;-76
2022/08/18 00:23:51;;;;;;;2.97;2.67;;;;;;;;;;5090824;28;20942;-77
2022/08/18 00:26:18;;;;;;;4.17;3.60;;;;;;;;;;5091164;28;20528;-76
2022/08/18 00:28:45;;;;;;;3.83;3.30;;;;;;;;;;5090779;28;20436;-77
2022/08/18 00:31:12;;;;;;;3.57;2.93;;;;;;;;;;5091312;28;20443;-74
2022/08/18 00:33:39;;;;;;;3.43;3.00;;;;;;;;;;5091363;28;20557;-76
2022/08/18 00:36:08;;;;;;;4.93;3.30;;;;;;;;;;5091065;28;20433;-76
2022/08/18 00:38:35;;;;;;;5.20;3.17;;;;;;;;;;5091535;28;20483;-76
2022/08/18 00:41:02;;;;;;;3.40;2.30;;;;;;;;;;5090078;28;20844;-75
2022/08/18 00:43:32;;;;;;;3.30;2.77;;;;;;;;;;5091845;28;20452;-76
2022/08/18 00:46:00;;;;;;;3.50;2.80;;;;;;;;;;5090710;28;20524;-76
2022/08/18 00:48:27;;;;;;;2.80;2.57;;;;;;;;;;5091621;28;20432;-77
2022/08/18 00:50:56;;;;;;;3.53;2.90;;;;;;;;;;5094603;28;20864;-77
2022/08/18 00:53:28;;;;;;;3.33;3.03;;;;;;;;;;5095532;28;20991;-76
2022/08/18 00:55:57;;;;;;;2.93;2.67;;;;;;;;;;5094862;28;20450;-76
2022/08/18 00:58:26;;;;;;;4.60;2.90;;;;;;;;;;5095623;28;20487;-76
2022/08/18 01:00:54;;;;;;;2.77;2.57;;;;;;;;;;5094528;28;20960;-77
2022/08/18 01:03:22;;;;;;;4.50;3.30;;;;;;;;;;5095364;28;20444;-76
2022/08/18 01:05:53;;;;;;;3.07;2.77;;;;;;;;;;5095036;28;20458;-76
2022/08/18 01:08:21;;;;;;;3.90;3.60;;;;;;;;;;5095325;28;20433;-76
2022/08/18 01:10:50;;;;;;;3.20;2.90;;;;;;;;;;5094279;28;20928;-76
2022/08/18 01:13:17;;;;;;;4.37;3.33;;;;;;;;;;5095160;28;20962;-77
2022/08/18 01:15:44;;;;;;;3.77;3.10;;;;;;;;;;5095001;28;20437;-74
2022/08/18 01:23:50;;;;;;;2.93;2.67;;;;;;;;;;5094617;28;20561;-76
2022/08/18 01:26:17;;;;;;;4.40;2.97;;;;;;;;;;5094822;28;20432;-76
2022/08/18 01:28:46;;;;;;;3.90;3.10;;;;;;;;;;5094724;28;20547;-76
2022/08/18 01:31:14;;;;;;;3.23;2.80;;;;;;;;;;5094976;28;20441;-74
2022/08/18 01:33:42;;;;;;;3.60;2.90;;;;;;;;;;5095270;28;20469;-77
2022/08/18 01:36:13;;;;;;;3.57;3.10;;;;;;;;;;5094891;28;20436;-77
2022/08/18 01:38:40;;;;;;;3.70;2.87;;;;;;;;;;5095101;28;20823;-77
2022/08/18 01:41:09;;;;;;;4.27;3.00;;;;;;;;;;5094335;28;20455;-77
2022/08/18 01:43:36;;;;;;;3.57;3.23;;;;;;;;;;5094940;28;20783;-77
2022/08/18 01:46:04;;;;;;;3.57;2.83;;;;;;;;;;5080911;28;20474;-76
2022/08/18 01:48:33;;;;;;;3.70;3.40;;;;;;;;;;5094854;28;20455;-73
2022/08/18 01:51:00;;;;;;;3.17;2.90;;;;;;;;;;5080625;28;20448;-76
2022/08/18 01:53:27;;;;;;;3.20;2.90;;;;;;;;;;5094520;28;20445;-76
2022/08/18 01:55:55;;;;;;;3.43;3.13;;;;;;;;;;5093715;28;20940;-77
2022/08/18 01:58:26;;;;;;;4.10;3.30;;;;;;;;;;5094196;28;20786;-76
2022/08/18 02:00:55;;;;;;;3.60;3.17;;;;;;;;;;5092969;28;20462;-76
2022/08/18 02:03:25;;;;;;;3.60;2.87;;;;;;;;;;5094764;28;20498;-76
2022/08/18 02:05:55;;;;;;;3.67;2.90;;;;;;;;;;5102344;28;20437;-75
2022/08/18 02:08:22;;;;;;;3.63;3.00;;;;;;;;;;5115528;28;20472;-76
2022/08/18 02:10:49;;;;;;;4.10;3.30;;;;;;;;;;5110110;28;20471;-76
2022/08/18 02:13:17;;;;;;;3.73;3.30;;;;;;;;;;5095867;28;20433;-76
2022/08/18 02:15:45;;;;;;;3.77;3.23;;;;;;;;;;5093686;28;20904;-76
2022/08/18 02:18:15;;;;;;;3.93;3.07;;;;;;;;;;5094676;28;20529;-76
2022/08/18 02:20:43;;;;;;;5.20;3.10;;;;;;;;;;5093467;28;20429;-68
2022/08/18 02:23:10;;;;;;;3.53;2.93;;;;;;;;;;5094012;28;20572;-76
2022/08/18 02:25:37;;;;;;;4.60;3.00;;;;;;;;;;5095000;28;20536;-76
2022/08/18 02:28:04;;;;;;;2.77;2.57;;;;;;;;;;5098491;28;20516;-76
2022/08/18 02:30:32;;;;;;;3.10;2.80;;;;;;;;;;5111356;28;20440;-76
2022/08/18 02:33:00;;;;;;;6.10;3.10;;;;;;;;;;5109789;28;20544;-75
2022/08/18 02:35:27;;;;;;;3.10;2.70;;;;;;;;;;5107365;28;20433;-76
2022/08/18 02:37:55;;;;;;;4.00;2.53;;;;;;;;;;5102673;28;20777;-76
2022/08/18 02:40:22;;;;;;;3.40;3.10;;;;;;;;;;5095773;28;20545;-76
2022/08/18 02:42:51;;;;;;;3.73;3.43;;;;;;;;;;5093165;28;20445;-76
2022/08/18 02:45:18;;;;;;;4.30;3.30;;;;;;;;;;5093225;28;20544;-76
2022/08/18 02:47:46;;;;;;;3.20;2.80;;;;;;;;;;5093272;28;20432;-76
2022/08/18 02:50:15;;;;;;;5.50;3.43;;;;;;;;;;5093302;28;20444;-74
2022/08/18 02:52:42;;;;;;;3.90;3.37;;;;;;;;;;5093294;28;20856;-69
2022/08/18 02:55:10;;;;;;;6.90;3.40;;;;;;;;;;5093028;28;20484;-76
2022/08/18 02:57:42;;;;;;;3.93;3.37;;;;;;;;;;5093488;28;20432;-76
2022/08/18 03:00:11;;;;;;;4.17;3.47;;;;;;;;;;5093281;28;20473;-76
2022/08/18 03:02:38;;;;;;;4.77;3.80;;;;;;;;;;5093479;28;20912;-76
2022/08/18 03:05:06;;;;;;;3.03;2.70;;;;;;;;;;5092738;28;20445;-76
2022/08/18 03:07:34;;;;;;;4.50;3.10;;;;;;;;;;5093271;28;20445;-76
2022/08/18 03:10:01;;;;;;;3.87;3.47;;;;;;;;;;5091637;28;20445;-76
2022/08/18 03:12:29;;;;;;;3.47;3.10;;;;;;;;;;5092000;28;20445;-76
2022/08/18 03:14:56;;;;;;;3.40;3.10;;;;;;;;;;5092427;28;20443;-76
2022/08/18 03:17:23;;;;;;;3.70;3.30;;;;;;;;;;5092892;28;20995;-76
2022/08/18 03:19:50;;;;;;;4.10;3.70;;;;;;;;;;5091934;28;20483;-76
2022/08/18 03:22:17;;;;;;;3.43;3.13;;;;;;;;;;5092941;28;20437;-76
2022/08/18 03:24:46;;;;;;;5.57;3.40;;;;;;;;;;5091878;28;20445;-76
2022/08/18 03:27:13;;;;;;;8.70;3.63;;;;;;;;;;5092970;28;20441;-74
2022/08/18 03:29:40;;;;;;;4.83;3.87;;;;;;;;;;5092390;28;20467;-76
2022/08/18 03:32:08;;;;;;;4.37;3.27;;;;;;;;;;5092374;28;20444;-76
2022/08/18 03:34:35;;;;;;;3.07;2.40;;;;;;;;;;5093007;28;20437;-76
2022/08/18 03:37:02;;;;;;;3.37;3.07;;;;;;;;;;5091760;28;20643;-76
2022/08/18 03:39:30;;;;;;;2.90;2.60;;;;;;;;;;5091968;28;20499;-76
2022/08/18 03:41:58;;;;;;;3.70;2.93;;;;;;;;;;5091423;28;20441;-76
2022/08/18 03:44:26;;;;;;;3.30;2.80;;;;;;;;;;5092398;28;20499;-76
2022/08/18 03:46:53;;;;;;;3.97;3.57;;;;;;;;;;5091736;28;20463;-76
2022/08/18 03:49:21;;;;;;;3.20;2.90;;;;;;;;;;5078481;28;20441;-76
2022/08/18 03:51:50;;;;;;;4.20;3.57;;;;;;;;;;5091864;28;20438;-76
2022/08/18 03:54:18;;;;;;;3.23;2.77;;;;;;;;;;5091922;28;20482;-76
2022/08/18 03:56:46;;;;;;;4.33;3.60;;;;;;;;;;5091205;28;20920;-76
2022/08/18 03:59:16;;;;;;;3.97;2.90;;;;;;;;;;5091994;28;20477;-75
2022/08/18 04:01:44;;;;;;;3.90;3.53;;;;;;;;;;5091345;28;20429;-73
2022/08/18 04:04:12;;;;;;;4.93;3.40;;;;;;;;;;5092317;28;20443;-76
2022/08/18 04:06:41;;;;;;;3.47;2.93;;;;;;;;;;5092270;28;20527;-77
2022/08/18 04:09:10;;;;;;;4.70;2.87;;;;;;;;;;5091606;28;20521;-76
2022/08/18 04:11:38;;;;;;;4.90;3.63;;;;;;;;;;5091776;28;20449;-77
2022/08/18 04:14:05;;;;;;;5.77;3.57;;;;;;;;;;5091437;28;20836;-75
2022/08/18 04:16:37;;;;;;;4.23;3.03;;;;;;;;;;5091770;28;20437;-77
2022/08/18 04:19:04;;;;;;;4.40;3.13;;;;;;;;;;5090500;28;20494;-77
2022/08/18 04:21:32;;;;;;;4.10;3.47;;;;;;;;;;5091895;28;20433;-76
2022/08/18 04:24:03;;;;;;;3.67;3.30;;;;;;;;;;5090767;28;20968;-76
2022/08/18 04:26:31;;;;;;;4.13;3.40;;;;;;;;;;5091670;28;20429;-76
2022/08/18 04:29:00;;;;;;;3.83;3.53;;;;;;;;;;5090961;28;20436;-77
2022/08/18 04:31:28;;;;;;;3.90;3.43;;;;;;;;;;5091416;28;20453;-76
2022/08/18 04:33:57;;;;;;;3.27;2.73;;;;;;;;;;5090822;28;20512;-75
2022/08/18 04:36:26;;;;;;;4.97;3.70;;;;;;;;;;5091901;28;20812;-76
2022/08/18 04:38:53;;;;;;;4.77;3.43;;;;;;;;;;5091050;28;20437;-74
2022/08/18 04:41:26;;;;;;;4.03;3.63;;;;;;;;;;5091465;28;20480;-76
2022/08/18 04:43:53;;;;;;;3.40;3.00;;;;;;;;;;5090977;28;20442;-76
2022/08/18 04:46:20;;;;;;;5.43;4.00;;;;;;;;;;5091571;28;20815;-76
2022/08/18 04:48:48;;;;;;;4.00;3.50;;;;;;;;;;5090756;28;20531;-75
2022/08/18 04:51:18;;;;;;;6.03;3.70;;;;;;;;;;5091323;28;20539;-76
2022/08/18 04:53:45;;;;;;;4.10;3.30;;;;;;;;;;5090825;28;20429;-76
2022/08/18 04:56:20;;;;;;;5.63;3.80;;;;;;;;;;5091599;28;20926;-75
2022/08/18 04:58:51;;;;;;;3.93;3.57;;;;;;;;;;5090875;28;20485;-76
2022/08/18 05:01:19;;;;;;;4.10;3.70;;;;;;;;;;5091691;28;20471;-76
2022/08/18 05:03:46;;;;;;;3.77;3.37;;;;;;;;;;5090894;28;20455;-76
2022/08/18 05:06:13;;;;;;;4.80;3.97;;;;;;;;;;5092711;28;20440;-74
2022/08/18 05:08:42;;;;;;;4.30;3.23;;;;;;;;;;5098043;28;20417;-75
2022/08/18 05:11:09;;;;;;;4.97;3.37;;;;;;;;;;5108863;28;20484;-75
2022/08/18 05:13:36;;;;;;;3.60;3.20;;;;;;;;;;5106146;28;20508;-75
2022/08/18 05:16:05;;;;;;;3.63;3.30;;;;;;;;;;5101868;28;20445;-74
2022/08/18 05:18:37;;;;;;;5.20;3.57;;;;;;;;;;5096798;28;20448;-75
2022/08/18 05:21:05;;;;;;;3.77;3.10;;;;;;;;;;5090838;28;20564;-75
2022/08/18 05:23:32;;;;;;;4.27;3.10;;;;;;;;;;5090914;28;20447;-75
2022/08/18 05:26:02;;;;;;;4.37;3.47;;;;;;;;;;5090043;28;20441;-75
2022/08/18 05:28:29;;;;;;;3.30;2.97;;;;;;;;;;5091613;28;20441;-75
2022/08/18 05:30:56;;;;;;;5.03;3.87;;;;;;;;;;5090319;28;20455;-75
2022/08/18 05:33:24;;;;;;;5.93;3.90;;;;;;;;;;5091161;28;20469;-75
2022/08/18 05:35:54;;;;;;;4.20;3.50;;;;;;;;;;5091185;28;20444;-75
2022/08/18 05:38:33;;;;;;;4.20;3.67;;;;;;;;;;5095225;28;20443;-75
2022/08/18 05:41:06;;;;;;;3.50;3.20;;;;;;;;;;5093927;28;20491;-75
2022/08/18 05:43:33;;;;;;;4.87;3.87;;;;;;;;;;5094781;28;20881;-75
2022/08/18 05:46:02;;;;;;;3.80;3.40;;;;;;;;;;5094207;28;20776;-75
2022/08/18 05:48:29;;;;;;;3.80;3.40;;;;;;;;;;5094658;28;20440;-74
2022/08/18 05:50:56;;;;;;;4.27;3.67;;;;;;;;;;5094015;28;20480;-75
2022/08/18 05:56:45;;;;;;;3.23;2.93;;;;;;;;;;5094798;28;20443;-75
2022/08/18 05:59:00;;;;;;;4.00;3.33;;;;;;;;;;5093262;28;20439;-75
2022/08/18 06:01:29;;;;;;;4.67;3.97;;;;;;;;;;5095022;28;20895;-75
2022/08/18 06:03:59;;;;;;;3.00;2.70;;;;;;;;;;5094159;28;20448;-75
2022/08/18 06:06:28;;;;;;;4.43;3.50;;;;;;;;;;5111600;28;20463;-75
2022/08/18 06:08:59;;;;;;;3.87;3.33;;;;;;;;;;5116645;28;20735;-75
2022/08/18 06:11:27;;;;;;;3.93;3.20;;;;;;;;;;5104745;28;20441;-75
2022/08/18 06:13:55;;;;;;;4.37;3.97;;;;;;;;;;5094991;28;20436;-75
2022/08/18 06:16:31;;;;;;;3.63;3.33;;;;;;;;;;5093999;28;20444;-75
2022/08/18 06:19:01;;;;;;;4.57;3.73;;;;;;;;;;5093391;28;20484;-75
2022/08/18 06:21:44;;;;;;;4.07;3.53;;;;;;;;;;5094010;28;20480;-75
2022/08/18 06:24:17;;;;;;;3.87;3.40;;;;;;;;;;5094445;28;20468;-75
2022/08/18 06:26:49;;;;;;;3.60;3.30;;;;;;;;;;5093643;28;20498;-75
2022/08/18 06:29:23;;;;;;;4.37;3.23;;;;;;;;;;5093777;28;20432;-75
2022/08/18 06:31:54;;;;;;;5.27;3.70;;;;;;;;;;5093107;28;20450;-75
2022/08/18 06:34:26;;;;;;;4.80;3.60;;;;;;;;;;5093484;28;20460;-75
2022/08/18 06:36:55;;;;;;;4.13;3.73;;;;;;;;;;5092983;28;20931;-75
2022/08/18 06:39:26;;;;;;;6.27;4.20;;;;;;;;;;5093427;28;20437;-74
2022/08/18 06:41:55;;;;;;;4.60;3.57;;;;;;;;;;5092883;28;20565;-75
2022/08/18 06:44:28;;;;;;;5.47;4.17;;;;;;;;;;5093460;28;20531;-75
2022/08/18 06:46:56;;;;;;;4.43;4.03;;;;;;;;;;5092718;28;20436;-75
2022/08/18 06:49:29;;;;;;;5.13;4.47;;;;;;;;;;5093285;28;20447;-76
2022/08/18 06:51:56;;;;;;;3.53;3.23;;;;;;;;;;5093107;28;20459;-76
2022/08/18 06:54:28;;;;;;;3.90;3.50;;;;;;;;;;5093621;28;20490;-76
2022/08/18 06:56:57;;;;;;;3.43;3.13;;;;;;;;;;5092603;28;20540;-75
2022/08/18 06:59:26;;;;;;;5.00;3.97;;;;;;;;;;5093254;28;20445;-75
2022/08/18 07:01:54;;;;;;;4.00;3.60;;;;;;;;;;5092765;28;20499;-76
2022/08/18 07:04:39;;;;;;;3.57;3.27;;;;;;;;;;5093412;28;20500;-76
2022/08/18 07:07:14;;;;;;;3.87;3.47;;;;;;;;;;5092493;28;20566;-76
2022/08/18 07:09:42;;;;;;;3.90;3.53;;;;;;;;;;5092709;28;20444;-76
2022/08/18 07:12:11;;;;;;;4.90;2.90;;;;;;;;;;5093000;28;20472;-75
2022/08/18 07:14:45;;;;;;;3.40;3.10;;;;;;;;;;5093094;28;20510;-76
2022/08/18 07:17:14;;;;;;;5.90;4.30;;;;;;;;;;5093334;28;20808;-76
2022/08/18 07:19:41;;;;;;;3.87;3.50;;;;;;;;;;5092778;28;20523;-75
2022/08/18 07:22:10;;;;;;;6.60;3.70;;;;;;;;;;5093165;28;20830;-75
2022/08/18 07:24:41;;;;;;;4.80;3.80;;;;;;;;;;5092733;28;20536;-75
2022/08/18 07:27:09;;;;;;;3.83;3.43;;;;;;;;;;5092732;28;20486;-76
2022/08/18 07:29:40;;;;;;;3.90;3.40;;;;;;;;;;5092289;28;20576;-76
2022/08/18 07:32:10;;;;;;;3.20;2.90;;;;;;;;;;5092322;28;20456;-73
2022/08/18 07:34:39;;;;;;;4.37;3.93;;;;;;;;;;5092725;28;20540;-76
2022/08/18 07:37:10;;;;;;;3.57;3.27;;;;;;;;;;5092745;28;20765;-76
2022/08/18 07:39:39;;;;;;;3.70;3.30;;;;;;;;;;5079186;28;20445;-76
2022/08/18 07:42:09;;;;;;;3.43;3.13;;;;;;;;;;5091740;28;20887;-76
2022/08/18 07:44:43;;;;;;;3.90;3.60;;;;;;;;;;5092864;28;20461;-76
2022/08/18 07:47:14;;;;;;;3.53;3.23;;;;;;;;;;5092597;28;20435;-76
2022/08/18 07:49:43;;;;;;;3.70;3.40;;;;;;;;;;5092244;28;20445;-76
2022/08/18 07:52:14;;;;;;;3.60;3.30;;;;;;;;;;5092427;28;20451;-75
2022/08/18 07:54:46;;;;;;;4.13;3.33;;;;;;;;;;5092565;28;20440;-76
2022/08/18 07:57:16;;;;;;;4.00;3.53;;;;;;;;;;5092100;28;20440;-74
2022/08/18 07:59:47;;;;;;;3.80;3.27;;;;;;;;;;5090797;28;20440;-69
2022/08/18 08:02:22;;;;;;;3.43;3.13;;;;;;;;;;5092011;28;20489;-75
2022/08/18 08:04:53;;;;;;;3.90;3.60;;;;;;;;;;5091503;28;20524;-76
2022/08/18 08:07:23;;;;;;;3.60;3.20;;;;;;;;;;5092125;28;20476;-76
2022/08/18 08:09:54;;;;;;;3.60;3.30;;;;;;;;;;5091278;28;20440;-76
2022/08/18 08:12:25;;;;;;;6.50;3.20;;;;;;;;;;5092302;28;20445;-77
2022/08/18 08:14:58;;;;;;;4.80;4.03;;;;;;;;;;5091606;28;20439;-76
2022/08/18 08:17:26;;;;;;;3.63;3.30;;;;;;;;;;5092359;28;20443;-76
2022/08/18 08:20:03;;;;;;;4.60;3.80;;;;;;;;;;5090818;28;20441;-77
2022/08/18 08:22:33;;;;;;;8.03;3.20;;;;;;;;;;5092223;28;20469;-76
2022/08/18 08:25:04;;;;;;;4.07;2.87;;;;;;;;;;5091282;28;20451;-76
2022/08/18 08:27:35;;;;;;;3.67;3.30;;;;;;;;;;5092040;28;20440;-76
2022/08/18 08:30:06;;;;;;;3.77;3.37;;;;;;;;;;5091204;28;20707;-76
2022/08/18 08:32:35;;;;;;;4.37;3.23;;;;;;;;;;5091494;28;20928;-76
2022/08/18 08:35:06;;;;;;;3.80;3.50;;;;;;;;;;5091331;28;20938;-76
2022/08/18 08:37:36;;;;;;;4.03;3.47;;;;;;;;;;5091803;28;20425;-77
2022/08/18 08:40:07;;;;;;;3.80;3.40;;;;;;;;;;5091012;28;20455;-77
2022/08/18 08:42:39;;;;;;;5.77;3.87;;;;;;;;;;5091308;28;20501;-76
2022/08/18 08:45:10;;;;;;;3.77;3.23;;;;;;;;;;5091214;28;20433;-77
2022/08/18 08:47:40;;;;;;;4.20;3.30;;;;;;;;;;5092087;28;20436;-76
2022/08/18 08:50:09;;;;;;;4.43;3.33;;;;;;;;;;5091228;28;20433;-76
2022/08/18 08:52:39;;;;;;;4.00;3.60;;;;;;;;;;5091938;28;20437;-77
2022/08/18 08:55:10;;;;;;;4.30;3.17;;;;;;;;;;5090984;28;20443;-75
2022/08/18 08:57:40;;;;;;;4.30;3.70;;;;;;;;;;5091646;28;20450;-76
2022/08/18 09:00:10;;;;;;;4.80;3.87;;;;;;;;;;5090679;28;20912;-76
2022/08/18 09:02:58;;;;;;;3.93;3.53;;;;;;;;;;5091486;28;20503;-77
2022/08/18 09:05:26;;;;;;;4.43;3.40;;;;;;;;;;5087547;28;20484;-77
2022/08/18 09:08:11;;;;;;;4.53;4.13;;;;;;;;;;5094373;28;20441;-76
2022/08/18 09:10:44;;;;;;;4.10;3.70;;;;;;;;;;5100597;28;20436;-77
2022/08/18 09:13:22;;;;;;;4.17;3.77;;;;;;;;;;5106866;28;20429;-76
2022/08/18 09:15:58;;;;;;;3.57;3.27;;;;;;;;;;5107691;28;20468;-76
2022/08/18 09:18:36;;;;;;;3.83;3.47;;;;;;;;;;5109440;28;20496;-73
2022/08/18 09:21:17;;;;;;;5.00;3.73;;;;;;;;;;5110784;28;20588;-76
2022/08/18 09:23:46;;;;;;;4.03;3.63;;;;;;;;;;5112063;28;20428;-72
2022/08/18 09:26:23;;;;;;;4.33;3.93;;;;;;;;;;5107965;28;20885;-75
2022/08/18 09:28:56;;;;;;;4.00;3.60;;;;;;;;;;5096736;28;20798;-77
2022/08/18 09:31:25;;;;;;;3.47;3.17;;;;;;;;;;5097236;28;20505;-77
2022/08/18 09:34:06;;;;;;;4.87;3.60;;;;;;;;;;5095024;28;20472;-76
2022/08/18 09:36:41;;;;;;;4.13;3.83;;;;;;;;;;5095359;28;20491;-77
2022/08/18 09:42:01;;;;;;;4.43;4.03;;;;;;;;;;5094189;28;20962;-77
2022/08/18 09:44:43;;;;;;;4.27;3.90;;;;;;;;;;5094838;28;20904;-77
2022/08/18 09:47:12;;;;;;;4.60;4.07;;;;;;;;;;5094724;28;20539;-77
2022/08/18 09:49:47;;;;;;;4.87;4.30;;;;;;;;;;5094736;28;20444;-77
2022/08/18 09:52:32;;;;;;;4.70;4.20;;;;;;;;;;5094914;28;20444;-76
2022/08/18 09:55:00;;;;;;;4.57;4.13;;;;;;;;;;5094389;28;20443;-77
2022/08/18 09:57:28;;;;;;;4.97;4.57;;;;;;;;;;5094398;28;20934;-77
2022/08/18 10:00:11;;;;;;;4.40;4.00;;;;;;;;;;5093764;28;20448;-76
2022/08/18 10:03:04;;;;;;;6.40;4.90;;;;;;;;;;5094545;28;20549;-77
2022/08/18 10:05:32;;;;;;;4.47;3.90;;;;;;;;;;5095161;28;20436;-77
2022/08/18 10:08:15;;;;;;;4.50;4.10;;;;;;;;;;5095618;28;20524;-77
2022/08/18 10:10:48;;;;;;;4.97;4.57;;;;;;;;;;5104037;28;20508;-74
2022/08/18 10:13:20;;;;;;;3.87;3.57;;;;;;;;;;5118496;28;20467;-69
2022/08/18 10:15:52;;;;;;;3.90;3.50;;;;;;;;;;5117693;28;20457;-73
2022/08/18 10:18:27;;;;;;;5.50;5.00;;;;;;;;;;5099699;28;20524;-74
2022/08/18 10:20:59;;;;;;;4.73;3.53;;;;;;;;;;5093897;28;20432;-77
2022/08/18 10:23:44;;;;;;;4.80;4.33;;;;;;;;;;5080043;28;20465;-78
2022/08/18 10:26:26;;;;;;;5.70;4.27;;;;;;;;;;5094441;28;20437;-77
2022/08/18 10:28:55;;;;;;;4.73;4.33;;;;;;;;;;5093014;28;20444;-78
2022/08/18 10:31:22;;;;;;;4.33;3.93;;;;;;;;;;5093824;28;20870;-77
2022/08/18 10:34:01;;;;;;;4.70;4.30;;;;;;;;;;5093430;28;20812;-77
2022/08/18 10:36:40;;;;;;;5.60;4.63;;;;;;;;;;5093961;28;20888;-77
2022/08/18 10:39:07;;;;;;;4.67;4.27;;;;;;;;;;5092768;28;20930;-78
2022/08/18 10:41:37;;;;;;;4.60;4.20;;;;;;;;;;5093453;28;20476;-77
2022/08/18 10:44:05;;;;;;;5.40;5.00;;;;;;;;;;5093181;28;20445;-77
2022/08/18 10:46:35;;;;;;;5.07;4.60;;;;;;;;;;5094000;28;20441;-77
2022/08/18 10:49:16;;;;;;;4.93;4.53;;;;;;;;;;5092604;28;20449;-77
2022/08/18 10:51:53;;;;;;;5.43;4.93;;;;;;;;;;5093804;28;20794;-72
2022/08/18 10:54:24;;;;;;;5.00;4.50;;;;;;;;;;5093480;28;20435;-77
2022/08/18 10:56:54;;;;;;;5.27;4.60;;;;;;;;;;5092639;28;20437;-78
2022/08/18 10:59:26;;;;;;;5.60;5.10;;;;;;;;;;5094345;28;20445;-77
2022/08/18 11:02:03;;;;;;;5.87;5.07;;;;;;;;;;5092866;28;20496;-77
2022/08/18 11:04:35;;;;;;;5.40;4.90;;;;;;;;;;5093563;28;20428;-77
2022/08/18 11:07:05;;;;;;;5.10;4.60;;;;;;;;;;5092608;28;21252;-77
2022/08/18 11:09:33;;;;;;;5.47;4.97;;;;;;;;;;5093052;28;20437;-78
2022/08/18 11:12:01;;;;;;;4.87;4.40;;;;;;;;;;5092575;28;20440;-77
2022/08/18 11:14:41;;;;;;;5.17;4.67;;;;;;;;;;5093337;28;20842;-78
2022/08/18 11:17:13;;;;;;;4.90;4.50;;;;;;;;;;5092946;28;20440;-78
2022/08/18 11:19:43;;;;;;;5.40;4.90;;;;;;;;;;5092983;28;20433;-78
2022/08/18 11:22:21;;;;;;;4.63;4.23;;;;;;;;;;5093308;28;20876;-78
2022/08/18 11:24:48;;;;;;;4.80;4.30;;;;;;;;;;5092588;28;20515;-78
2022/08/18 11:27:18;;;;;;;5.00;4.60;;;;;;;;;;5093087;28;20455;-77
2022/08/18 11:29:46;;;;;;;5.37;4.70;;;;;;;;;;5092221;28;20436;-78
2022/08/18 11:32:17;;;;;;;6.47;4.40;;;;;;;;;;5092524;28;20444;-74
2022/08/18 11:34:46;;;;;;;5.20;4.70;;;;;;;;;;5091399;28;20511;-76
2022/08/18 11:37:21;;;;;;;5.63;5.13;;;;;;;;;;5092793;28;20440;-74
2022/08/18 11:39:49;;;;;;;6.30;5.80;;;;;;;;;;5091923;28;20436;-78
2022/08/18 11:42:17;;;;;;;5.63;5.13;;;;;;;;;;5093872;28;20476;-78
2022/08/18 11:44:45;;;;;;;5.63;5.13;;;;;;;;;;5092125;28;20441;-77
2022/08/18 11:47:15;;;;;;;4.90;4.50;;;;;;;;;;5092766;28;20765;-78
2022/08/18 11:49:50;;;;;;;5.07;4.57;;;;;;;;;;5092592;28;20516;-78
2022/08/18 11:52:20;;;;;;;6.50;5.43;;;;;;;;;;5092240;28;20515;-78
2022/08/18 11:54:49;;;;;;;5.90;5.40;;;;;;;;;;5092126;28;20519;-78
2022/08/18 11:57:39;;;;;;;5.63;4.90;;;;;;;;;;5092329;28;20437;-78
2022/08/18 12:00:21;;;;;;;5.63;5.13;;;;;;;;;;5091361;28;20433;-78
2022/08/18 12:02:49;;;;;;;5.33;4.70;;;;;;;;;;5091546;28;20496;-78
2022/08/18 12:05:17;;;;;;;5.90;5.40;;;;;;;;;;5092509;28;20436;-78
2022/08/18 12:07:44;;;;;;;5.60;5.10;;;;;;;;;;5091991;28;20729;-78
2022/08/18 12:10:17;;;;;;;5.87;5.37;;;;;;;;;;5091612;28;20998;-78
2022/08/18 12:12:46;;;;;;;6.23;5.63;;;;;;;;;;5091760;28;20447;-76
2022/08/18 12:15:25;;;;;;;6.33;5.73;;;;;;;;;;5092153;28;20433;-77
2022/08/18 12:17:52;;;;;;;6.13;5.60;;;;;;;;;;5086623;28;20463;-78
2022/08/18 12:20:21;;;;;;;5.70;5.20;;;;;;;;;;5092552;28;20436;-77
2022/08/18 12:22:49;;;;;;;5.40;4.90;;;;;;;;;;5090997;28;20476;-77
2022/08/18 12:25:17;;;;;;;5.70;5.20;;;;;;;;;;5092012;28;20433;-77
2022/08/18 12:27:44;;;;;;;5.70;5.20;;;;;;;;;;5091139;28;20436;-75
2022/08/18 12:30:12;;;;;;;5.40;4.90;;;;;;;;;;5091805;28;20448;-76
2022/08/18 12:32:40;;;;;;;6.30;5.50;;;;;;;;;;5091442;28;21026;-78
2022/08/18 12:35:09;;;;;;;5.17;4.77;;;;;;;;;;5091136;28;20451;-78
2022/08/18 12:37:37;;;;;;;8.93;8.03;;;;;;;;;;5091153;28;20914;-78
2022/08/18 12:40:06;;;;;;;6.40;5.80;;;;;;;;;;5090421;28;20440;-78
2022/08/18 12:42:34;;;;;;;6.37;5.30;;;;;;;;;;5091200;28;20484;-78
2022/08/18 12:45:01;;;;;;;6.30;5.10;;;;;;;;;;5090680;28;20540;-78
2022/08/18 12:47:29;;;;;;;5.20;4.80;;;;;;;;;;5091567;28;20436;-78
2022/08/18 12:49:56;;;;;;;5.80;5.30;;;;;;;;;;5090621;28;20772;-78
2022/08/18 12:52:23;;;;;;;5.20;4.10;;;;;;;;;;5091516;28;20793;-78
2022/08/18 12:54:52;;;;;;;5.70;5.20;;;;;;;;;;5091083;28;20451;-78
2022/08/18 12:57:20;;;;;;;5.60;5.20;;;;;;;;;;5091190;28;20439;-79
2022/08/18 12:59:48;;;;;;;5.40;5.00;;;;;;;;;;5090622;28;20440;-78
2022/08/18 13:02:15;;;;;;;5.17;4.77;;;;;;;;;;5091260;28;20476;-78
2022/08/18 13:04:43;;;;;;;4.70;4.30;;;;;;;;;;5090902;28;20448;-71
2022/08/18 13:07:11;;;;;;;5.83;5.40;;;;;;;;;;5091635;28;20539;-79
2022/08/18 13:09:38;;;;;;;5.20;4.70;;;;;;;;;;5091051;28;20527;-79
2022/08/18 13:12:08;;;;;;;4.70;4.30;;;;;;;;;;5090958;28;20444;-79
2022/08/18 13:14:35;;;;;;;5.93;5.30;;;;;;;;;;5091382;28;20441;-78
2022/08/18 13:17:03;;;;;;;6.10;5.30;;;;;;;;;;5090789;28;20852;-78
2022/08/18 13:19:31;;;;;;;6.03;5.37;;;;;;;;;;5090965;28;20444;-78
2022/08/18 13:21:58;;;;;;;5.47;4.90;;;;;;;;;;5090432;28;20485;-78
2022/08/18 13:24:26;;;;;;;6.00;5.50;;;;;;;;;;5091305;28;20531;-78
2022/08/18 13:26:54;;;;;;;6.43;5.83;;;;;;;;;;5090749;28;20498;-78
2022/08/18 13:29:24;;;;;;;5.47;4.97;;;;;;;;;;5091105;28;20527;-78
2022/08/18 13:31:56;;;;;;;6.00;5.50;;;;;;;;;;5090755;28;20451;-78
2022/08/18 13:34:23;;;;;;;5.47;5.07;;;;;;;;;;5091342;28;20474;-78
2022/08/18 13:36:50;;;;;;;6.03;5.53;;;;;;;;;;5090806;28;20432;-78
2022/08/18 13:39:18;;;;;;;5.90;5.40;;;;;;;;;;5090986;28;20432;-78
2022/08/18 13:41:46;;;;;;;6.07;5.67;;;;;;;;;;5090773;28;20476;-78
2022/08/18 13:44:16;;;;;;;5.60;5.10;;;;;;;;;;5091003;28;20425;-74
2022/08/18 13:46:45;;;;;;;5.50;4.90;;;;;;;;;;5090936;28;20490;-71
2022/08/18 13:49:14;;;;;;;6.60;4.57;;;;;;;;;;5091209;28;20464;-78
2022/08/18 13:51:42;;;;;;;6.13;5.53;;;;;;;;;;5091085;28;20436;-78
2022/08/18 13:54:09;;;;;;;4.80;4.40;;;;;;;;;;5091537;28;20479;-77
2022/08/18 13:56:36;;;;;;;5.87;5.27;;;;;;;;;;5092218;28;20500;-77
2022/08/18 13:59:04;;;;;;;6.97;5.80;;;;;;;;;;5098252;28;20444;-77
2022/08/18 14:01:32;;;;;;;6.17;5.67;;;;;;;;;;5104348;28;20440;-76
2022/08/18 14:04:00;;;;;;;5.20;4.60;;;;;;;;;;5106525;28;20217;-77
2022/08/18 14:06:27;;;;;;;4.70;4.30;;;;;;;;;;5105179;28;20440;-77
2022/08/18 14:08:55;;;;;;;6.90;5.47;;;;;;;;;;5106782;28;20262;-77
2022/08/18 14:11:25;;;;;;;5.00;4.50;;;;;;;;;;5111957;28;20505;-77
2022/08/18 14:13:52;;;;;;;5.40;4.90;;;;;;;;;;5112411;28;20198;-77
2022/08/18 14:16:20;;;;;;;5.53;5.10;;;;;;;;;;5113675;28;20244;-77
2022/08/18 14:26:47;;;;;;;4.50;4.10;;;;;;;;;;5114330;28;20198;-77
2022/08/18 14:27:05;;;;;;;5.50;5.00;;;;;;;;;;5099613;28;20435;-78
2022/08/18 14:29:32;;;;;;;4.57;4.20;;;;;;;;;;5094602;28;20253;-78
2022/08/18 14:31:59;;;;;;;5.33;4.67;;;;;;;;;;5094024;28;20240;-77
2022/08/18 14:34:26;;;;;;;5.80;4.30;;;;;;;;;;5094394;28;20499;-78
2022/08/18 14:36:55;;;;;;;5.27;4.70;;;;;;;;;;5093633;28;20527;-78
2022/08/18 14:39:22;;;;;;;4.60;4.27;;;;;;;;;;5093811;28;20222;-78
2022/08/18 14:41:49;;;;;;;5.17;4.77;;;;;;;;;;5093479;28;20445;-72
2022/08/18 14:44:16;;;;;;;4.70;4.30;;;;;;;;;;5093705;28;20224;-78
2022/08/18 14:46:46;;;;;;;4.10;3.80;;;;;;;;;;5093534;28;20205;-73
2022/08/18 14:49:13;;;;;;;4.57;4.27;;;;;;;;;;5093637;28;20259;-76
2022/08/18 14:51:41;;;;;;;4.43;4.10;;;;;;;;;;5093667;28;20210;-78
2022/08/18 14:54:11;;;;;;;5.00;4.53;;;;;;;;;;5093776;28;20281;-77
2022/08/18 14:56:38;;;;;;;4.32;3.92;;;;;;;;;;5093817;28;20194;-78
2022/08/18 14:59:06;;;;;;;4.67;4.27;;;;;;;;;;5092366;28;20711;-79
2022/08/18 15:01:33;;;;;;;5.05;4.65;;;;;;;;;;5093213;28;20202;-78
2022/08/18 15:04:01;;;;;;;5.07;4.57;;;;;;;;;;5092607;28;20218;-76
2022/08/18 15:06:28;;;;;;;4.80;4.40;;;;;;;;;;5092525;28;20549;-77
2022/08/18 15:08:55;;;;;;;4.65;4.30;;;;;;;;;;5088604;28;20186;-78
2022/08/18 15:11:24;;;;;;;4.60;4.20;;;;;;;;;;5081250;28;20187;-78
2022/08/18 15:13:51;;;;;;;5.45;5.03;;;;;;;;;;5102812;28;20280;-77
2022/08/18 15:16:18;;;;;;;5.70;5.20;;;;;;;;;;5092469;28;20267;-77